sensor_id;sensor_type;location;lat;lon;timestamp;P1;durP1;ratioP1;P2;durP2;ratioP2
24389;SDS011;12510;56.468;-3.004;2023-06-22T00:01:12;2.53;;;1.98;;
24389;SDS011;12510;56.468;-3.004;2023-06-22T00:03:39;2.63;;;2.15;;
24389;SDS011;12510;56.468;-3.004;2023-06-22T00:06:05;2.58;;;2.38;;
24389;SDS011;12510;56.468;-3.004;2023-06-22T00:08:32;4.40;;;2.22;;
24389;SDS011;12510;56.468;-3.004;2023-06-22T00:10:58;6.88;;;2.50;;
24389;SDS011;12510;56.468;-3.004;2023-06-22T00:13:25;3.75;;;2.15;;
24389;SDS011;12510;56.468;-3.004;2023-06-22T00:15:51;5.28;;;2.58;;
24389;SDS011;12510;56.468;-3.004;2023-06-22T00:18:18;3.75;;;2.17;;
24389;SDS011;12510;56.468;-3.004;2023-06-22T00:20:44;2.58;;;2.28;;
24389;SDS011;12510;56.468;-3.004;2023-06-22T00:23:11;2.53;;;2.22;;
24389;SDS011;12510;56.468;-3.004;2023-06-22T00:25:40;4.88;;;2.47;;
24389;SDS011;12510;56.468;-3.004;2023-06-22T00:28:06;2.90;;;2.60;;
24389;SDS011;12510;56.468;-3.004;2023-06-22T00:30:34;2.72;;;2.25;;
24389;SDS011;12510;56.468;-3.004;2023-06-22T00:33:01;8.18;;;3.60;;
24389;SDS011;12510;56.468;-3.004;2023-06-22T00:35:28;4.57;;;4.13;;
24389;SDS011;12510;56.468;-3.004;2023-06-22T00:37:58;4.40;;;3.75;;
24389;SDS011;12510;56.468;-3.004;2023-06-22T00:40:29;5.65;;;3.88;;
24389;SDS011;12510;56.468;-3.004;2023-06-22T00:42:57;4.07;;;3.75;;
24389;SDS011;12510;56.468;-3.004;2023-06-22T00:45:24;5.75;;;4.22;;
24389;SDS011;12510;56.468;-3.004;2023-06-22T00:47:52;6.15;;;4.40;;
24389;SDS011;12510;56.468;-3.004;2023-06-22T00:50:21;5.50;;;5.10;;
24389;SDS011;12510;56.468;-3.004;2023-06-22T00:52:52;5.30;;;4.60;;
24389;SDS011;12510;56.468;-3.004;2023-06-22T00:55:24;4.88;;;4.43;;
24389;SDS011;12510;56.468;-3.004;2023-06-22T00:57:54;6.10;;;5.50;;
24389;SDS011;12510;56.468;-3.004;2023-06-22T01:00:24;4.55;;;4.15;;
24389;SDS011;12510;56.468;-3.004;2023-06-22T01:02:51;4.82;;;4.47;;
24389;SDS011;12510;56.468;-3.004;2023-06-22T01:05:21;5.93;;;4.68;;
24389;SDS011;12510;56.468;-3.004;2023-06-22T01:08:08;5.43;;;4.85;;
24389;SDS011;12510;56.468;-3.004;2023-06-22T01:11:16;5.28;;;4.75;;
24389;SDS011;12510;56.468;-3.004;2023-06-22T01:17:00;4.97;;;4.55;;
24389;SDS011;12510;56.468;-3.004;2023-06-22T01:19:46;5.43;;;5.00;;
24389;SDS011;12510;56.468;-3.004;2023-06-22T01:22:26;5.82;;;5.38;;
24389;SDS011;12510;56.468;-3.004;2023-06-22T01:25:10;7.90;;;6.43;;
24389;SDS011;12510;56.468;-3.004;2023-06-22T01:30:32;6.00;;;5.50;;
24389;SDS011;12510;56.468;-3.004;2023-06-22T01:32:59;6.32;;;5.80;;
24389;SDS011;12510;56.468;-3.004;2023-06-22T01:35:29;6.70;;;6.03;;
24389;SDS011;12510;56.468;-3.004;2023-06-22T01:37:56;8.00;;;6.03;;
24389;SDS011;12510;56.468;-3.004;2023-06-22T01:40:23;7.10;;;6.50;;
24389;SDS011;12510;56.468;-3.004;2023-06-22T01:42:51;7.95;;;5.95;;
24389;SDS011;12510;56.468;-3.004;2023-06-22T01:45:18;5.40;;;4.90;;
24389;SDS011;12510;56.468;-3.004;2023-06-22T01:47:45;6.18;;;4.72;;
24389;SDS011;12510;56.468;-3.004;2023-06-22T01:50:13;7.18;;;4.88;;
24389;SDS011;12510;56.468;-3.004;2023-06-22T01:52:39;5.35;;;4.57;;
24389;SDS011;12510;56.468;-3.004;2023-06-22T01:55:06;6.00;;;5.40;;
24389;SDS011;12510;56.468;-3.004;2023-06-22T01:57:34;5.45;;;4.97;;
24389;SDS011;12510;56.468;-3.004;2023-06-22T02:00:02;5.05;;;4.65;;
24389;SDS011;12510;56.468;-3.004;2023-06-22T02:02:43;5.00;;;3.95;;
24389;SDS011;12510;56.468;-3.004;2023-06-22T02:05:23;4.53;;;4.00;;
24389;SDS011;12510;56.468;-3.004;2023-06-22T02:08:08;6.25;;;4.25;;
24389;SDS011;12510;56.468;-3.004;2023-06-22T02:10:36;4.15;;;3.85;;
24389;SDS011;12510;56.468;-3.004;2023-06-22T02:13:04;5.85;;;4.60;;
24389;SDS011;12510;56.468;-3.004;2023-06-22T02:15:33;6.43;;;4.47;;
24389;SDS011;12510;56.468;-3.004;2023-06-22T02:18:00;4.80;;;4.30;;
24389;SDS011;12510;56.468;-3.004;2023-06-22T02:23:30;5.55;;;3.28;;
24389;SDS011;12510;56.468;-3.004;2023-06-22T02:26:02;3.72;;;3.42;;
24389;SDS011;12510;56.468;-3.004;2023-06-22T02:28:29;5.93;;;3.22;;
24389;SDS011;12510;56.468;-3.004;2023-06-22T02:30:55;5.50;;;3.30;;
24389;SDS011;12510;56.468;-3.004;2023-06-22T02:33:22;5.78;;;3.53;;
24389;SDS011;12510;56.468;-3.004;2023-06-22T02:35:48;5.78;;;3.42;;
24389;SDS011;12510;56.468;-3.004;2023-06-22T02:38:15;4.75;;;3.00;;
24389;SDS011;12510;56.468;-3.004;2023-06-22T02:40:44;5.55;;;3.13;;
24389;SDS011;12510;56.468;-3.004;2023-06-22T02:43:11;2.70;;;2.50;;
24389;SDS011;12510;56.468;-3.004;2023-06-22T02:45:37;3.78;;;3.15;;
24389;SDS011;12510;56.468;-3.004;2023-06-22T02:48:04;2.92;;;2.60;;
24389;SDS011;12510;56.468;-3.004;2023-06-22T02:50:31;4.93;;;3.42;;
24389;SDS011;12510;56.468;-3.004;2023-06-22T02:52:58;7.07;;;3.28;;
24389;SDS011;12510;56.468;-3.004;2023-06-22T02:55:25;4.78;;;2.63;;
24389;SDS011;12510;56.468;-3.004;2023-06-22T02:57:57;4.30;;;2.90;;
24389;SDS011;12510;56.468;-3.004;2023-06-22T03:00:27;4.50;;;2.80;;
24389;SDS011;12510;56.468;-3.004;2023-06-22T03:02:57;4.63;;;2.53;;
24389;SDS011;12510;56.468;-3.004;2023-06-22T03:05:23;4.40;;;3.13;;
24389;SDS011;12510;56.468;-3.004;2023-06-22T03:07:50;4.65;;;2.65;;
24389;SDS011;12510;56.468;-3.004;2023-06-22T03:10:17;5.45;;;2.90;;
24389;SDS011;12510;56.468;-3.004;2023-06-22T03:12:43;3.97;;;2.72;;
24389;SDS011;12510;56.468;-3.004;2023-06-22T03:15:10;4.35;;;2.65;;
24389;SDS011;12510;56.468;-3.004;2023-06-22T03:17:38;4.43;;;3.10;;
24389;SDS011;12510;56.468;-3.004;2023-06-22T03:20:07;4.10;;;3.00;;
24389;SDS011;12510;56.468;-3.004;2023-06-22T03:22:35;4.10;;;2.78;;
24389;SDS011;12510;56.468;-3.004;2023-06-22T03:25:03;2.88;;;2.60;;
24389;SDS011;12510;56.468;-3.004;2023-06-22T03:27:30;6.47;;;3.00;;
24389;SDS011;12510;56.468;-3.004;2023-06-22T03:29:57;5.35;;;2.67;;
24389;SDS011;12510;56.468;-3.004;2023-06-22T03:32:23;4.25;;;2.67;;
24389;SDS011;12510;56.468;-3.004;2023-06-22T03:34:51;3.38;;;2.50;;
24389;SDS011;12510;56.468;-3.004;2023-06-22T03:37:17;5.05;;;3.15;;
24389;SDS011;12510;56.468;-3.004;2023-06-22T03:39:44;7.10;;;2.90;;
24389;SDS011;12510;56.468;-3.004;2023-06-22T03:42:10;3.75;;;2.85;;
24389;SDS011;12510;56.468;-3.004;2023-06-22T03:44:37;2.65;;;2.45;;
24389;SDS011;12510;56.468;-3.004;2023-06-22T03:47:05;3.53;;;2.80;;
24389;SDS011;12510;56.468;-3.004;2023-06-22T03:49:33;5.30;;;3.25;;
24389;SDS011;12510;56.468;-3.004;2023-06-22T03:52:01;7.20;;;3.50;;
24389;SDS011;12510;56.468;-3.004;2023-06-22T03:54:28;3.65;;;2.70;;
24389;SDS011;12510;56.468;-3.004;2023-06-22T03:56:56;5.05;;;3.15;;
24389;SDS011;12510;56.468;-3.004;2023-06-22T03:59:24;2.92;;;2.35;;
24389;SDS011;12510;56.468;-3.004;2023-06-22T04:01:51;3.22;;;2.90;;
24389;SDS011;12510;56.468;-3.004;2023-06-22T04:04:18;7.05;;;3.10;;
24389;SDS011;12510;56.468;-3.004;2023-06-22T04:06:44;11.30;;;3.30;;
24389;SDS011;12510;56.468;-3.004;2023-06-22T04:09:11;7.68;;;3.03;;
24389;SDS011;12510;56.468;-3.004;2023-06-22T04:11:38;3.72;;;2.88;;
24389;SDS011;12510;56.468;-3.004;2023-06-22T04:14:04;3.33;;;2.85;;
24389;SDS011;12510;56.468;-3.004;2023-06-22T04:16:31;7.93;;;3.22;;
24389;SDS011;12510;56.468;-3.004;2023-06-22T04:18:57;4.32;;;3.38;;
24389;SDS011;12510;56.468;-3.004;2023-06-22T04:21:23;3.08;;;2.58;;
24389;SDS011;12510;56.468;-3.004;2023-06-22T04:23:50;6.60;;;3.28;;
24389;SDS011;12510;56.468;-3.004;2023-06-22T04:26:16;4.93;;;3.03;;
24389;SDS011;12510;56.468;-3.004;2023-06-22T04:28:43;7.22;;;3.20;;
24389;SDS011;12510;56.468;-3.004;2023-06-22T04:31:11;5.82;;;4.28;;
24389;SDS011;12510;56.468;-3.004;2023-06-22T04:33:38;5.20;;;3.03;;
24389;SDS011;12510;56.468;-3.004;2023-06-22T04:36:09;4.00;;;2.55;;
24389;SDS011;12510;56.468;-3.004;2023-06-22T04:38:41;4.63;;;2.72;;
24389;SDS011;12510;56.468;-3.004;2023-06-22T04:41:08;6.78;;;2.88;;
24389;SDS011;12510;56.468;-3.004;2023-06-22T04:43:40;2.92;;;2.72;;
24389;SDS011;12510;56.468;-3.004;2023-06-22T04:46:06;5.03;;;2.67;;
24389;SDS011;12510;56.468;-3.004;2023-06-22T04:48:32;3.92;;;3.00;;
24389;SDS011;12510;56.468;-3.004;2023-06-22T04:50:59;5.65;;;2.67;;
24389;SDS011;12510;56.468;-3.004;2023-06-22T04:53:32;9.40;;;3.60;;
24389;SDS011;12510;56.468;-3.004;2023-06-22T04:55:58;7.60;;;3.40;;
24389;SDS011;12510;56.468;-3.004;2023-06-22T04:58:24;5.82;;;2.60;;
24389;SDS011;12510;56.468;-3.004;2023-06-22T05:00:54;4.38;;;2.53;;
24389;SDS011;12510;56.468;-3.004;2023-06-22T05:03:24;9.82;;;2.90;;
24389;SDS011;12510;56.468;-3.004;2023-06-22T05:05:52;4.78;;;2.50;;
24389;SDS011;12510;56.468;-3.004;2023-06-22T05:08:19;3.85;;;2.40;;
24389;SDS011;12510;56.468;-3.004;2023-06-22T05:10:46;6.47;;;2.60;;
24389;SDS011;12510;56.468;-3.004;2023-06-22T05:13:12;3.65;;;2.08;;
24389;SDS011;12510;56.468;-3.004;2023-06-22T05:15:38;4.30;;;2.33;;
24389;SDS011;12510;56.468;-3.004;2023-06-22T05:18:06;3.65;;;2.75;;
24389;SDS011;12510;56.468;-3.004;2023-06-22T05:20:32;9.05;;;2.40;;
24389;SDS011;12510;56.468;-3.004;2023-06-22T05:23:04;4.72;;;2.22;;
24389;SDS011;12510;56.468;-3.004;2023-06-22T05:25:31;7.47;;;3.10;;
24389;SDS011;12510;56.468;-3.004;2023-06-22T05:27:58;5.22;;;2.15;;
24389;SDS011;12510;56.468;-3.004;2023-06-22T05:30:25;8.27;;;2.67;;
24389;SDS011;12510;56.468;-3.004;2023-06-22T05:32:51;3.53;;;2.10;;
24389;SDS011;12510;56.468;-3.004;2023-06-22T05:35:18;3.60;;;2.10;;
24389;SDS011;12510;56.468;-3.004;2023-06-22T05:37:45;4.70;;;2.00;;
24389;SDS011;12510;56.468;-3.004;2023-06-22T05:40:11;28.20;;;5.05;;
24389;SDS011;12510;56.468;-3.004;2023-06-22T05:42:38;2.40;;;2.10;;
24389;SDS011;12510;56.468;-3.004;2023-06-22T05:45:05;6.32;;;2.55;;
24389;SDS011;12510;56.468;-3.004;2023-06-22T05:47:32;4.68;;;2.58;;
24389;SDS011;12510;56.468;-3.004;2023-06-22T05:49:58;5.72;;;2.50;;
24389;SDS011;12510;56.468;-3.004;2023-06-22T05:52:25;2.83;;;2.00;;
24389;SDS011;12510;56.468;-3.004;2023-06-22T05:54:51;16.08;;;3.30;;
24389;SDS011;12510;56.468;-3.004;2023-06-22T05:57:17;5.38;;;1.88;;
24389;SDS011;12510;56.468;-3.004;2023-06-22T05:59:44;5.05;;;2.35;;
24389;SDS011;12510;56.468;-3.004;2023-06-22T06:02:10;3.38;;;2.35;;
24389;SDS011;12510;56.468;-3.004;2023-06-22T06:04:37;4.05;;;1.90;;
24389;SDS011;12510;56.468;-3.004;2023-06-22T06:07:03;4.93;;;2.33;;
24389;SDS011;12510;56.468;-3.004;2023-06-22T06:09:30;4.10;;;2.63;;
24389;SDS011;12510;56.468;-3.004;2023-06-22T06:11:56;2.53;;;2.05;;
24389;SDS011;12510;56.468;-3.004;2023-06-22T06:14:22;5.55;;;2.20;;
24389;SDS011;12510;56.468;-3.004;2023-06-22T06:16:49;6.05;;;2.65;;
24389;SDS011;12510;56.468;-3.004;2023-06-22T06:19:15;6.65;;;2.65;;
24389;SDS011;12510;56.468;-3.004;2023-06-22T06:21:42;2.75;;;2.53;;
24389;SDS011;12510;56.468;-3.004;2023-06-22T06:24:08;4.95;;;3.05;;
24389;SDS011;12510;56.468;-3.004;2023-06-22T06:26:35;7.05;;;2.97;;
24389;SDS011;12510;56.468;-3.004;2023-06-22T06:29:01;5.43;;;3.47;;
24389;SDS011;12510;56.468;-3.004;2023-06-22T06:31:28;5.25;;;2.10;;
24389;SDS011;12510;56.468;-3.004;2023-06-22T06:33:54;4.97;;;2.63;;
24389;SDS011;12510;56.468;-3.004;2023-06-22T06:36:21;4.55;;;2.13;;
24389;SDS011;12510;56.468;-3.004;2023-06-22T06:38:47;3.35;;;1.85;;
24389;SDS011;12510;56.468;-3.004;2023-06-22T06:41:14;3.08;;;2.20;;
24389;SDS011;12510;56.468;-3.004;2023-06-22T06:43:42;2.90;;;2.70;;
24389;SDS011;12510;56.468;-3.004;2023-06-22T06:46:09;3.63;;;2.67;;
24389;SDS011;12510;56.468;-3.004;2023-06-22T06:48:35;3.17;;;2.50;;
24389;SDS011;12510;56.468;-3.004;2023-06-22T06:51:02;7.15;;;2.65;;
24389;SDS011;12510;56.468;-3.004;2023-06-22T06:53:28;3.90;;;2.60;;
24389;SDS011;12510;56.468;-3.004;2023-06-22T06:55:55;3.50;;;2.38;;
24389;SDS011;12510;56.468;-3.004;2023-06-22T06:58:22;4.03;;;2.13;;
24389;SDS011;12510;56.468;-3.004;2023-06-22T07:00:48;4.50;;;2.30;;
24389;SDS011;12510;56.468;-3.004;2023-06-22T07:03:15;9.30;;;3.03;;
24389;SDS011;12510;56.468;-3.004;2023-06-22T07:05:41;2.97;;;1.83;;
24389;SDS011;12510;56.468;-3.004;2023-06-22T07:08:08;2.78;;;2.10;;
24389;SDS011;12510;56.468;-3.004;2023-06-22T07:10:34;4.32;;;2.40;;
24389;SDS011;12510;56.468;-3.004;2023-06-22T07:13:00;6.95;;;2.60;;
24389;SDS011;12510;56.468;-3.004;2023-06-22T07:15:27;2.75;;;1.65;;
24389;SDS011;12510;56.468;-3.004;2023-06-22T07:17:53;3.88;;;2.17;;
24389;SDS011;12510;56.468;-3.004;2023-06-22T07:20:20;2.65;;;1.60;;
24389;SDS011;12510;56.468;-3.004;2023-06-22T07:22:46;3.83;;;1.85;;
24389;SDS011;12510;56.468;-3.004;2023-06-22T07:25:13;5.20;;;2.30;;
24389;SDS011;12510;56.468;-3.004;2023-06-22T07:27:44;6.68;;;1.85;;
24389;SDS011;12510;56.468;-3.004;2023-06-22T07:30:12;3.35;;;1.73;;
24389;SDS011;12510;56.468;-3.004;2023-06-22T07:32:39;4.40;;;2.08;;
24389;SDS011;12510;56.468;-3.004;2023-06-22T07:35:06;2.25;;;1.92;;
24389;SDS011;12510;56.468;-3.004;2023-06-22T07:37:33;4.45;;;1.80;;
24389;SDS011;12510;56.468;-3.004;2023-06-22T07:40:00;5.38;;;1.75;;
24389;SDS011;12510;56.468;-3.004;2023-06-22T07:42:30;4.28;;;1.83;;
24389;SDS011;12510;56.468;-3.004;2023-06-22T07:44:58;2.92;;;2.45;;
24389;SDS011;12510;56.468;-3.004;2023-06-22T07:47:25;2.70;;;1.83;;
24389;SDS011;12510;56.468;-3.004;2023-06-22T07:49:58;3.43;;;1.60;;
24389;SDS011;12510;56.468;-3.004;2023-06-22T07:52:30;5.00;;;1.88;;
24389;SDS011;12510;56.468;-3.004;2023-06-22T07:54:57;3.95;;;2.10;;
24389;SDS011;12510;56.468;-3.004;2023-06-22T07:57:23;2.53;;;1.83;;
24389;SDS011;12510;56.468;-3.004;2023-06-22T07:59:58;2.55;;;1.55;;
24389;SDS011;12510;56.468;-3.004;2023-06-22T08:02:25;5.03;;;2.13;;
24389;SDS011;12510;56.468;-3.004;2023-06-22T08:04:52;8.35;;;2.20;;
24389;SDS011;12510;56.468;-3.004;2023-06-22T08:07:19;8.32;;;2.60;;
24389;SDS011;12510;56.468;-3.004;2023-06-22T08:09:46;2.28;;;1.40;;
24389;SDS011;12510;56.468;-3.004;2023-06-22T08:12:14;3.47;;;1.63;;
24389;SDS011;12510;56.468;-3.004;2023-06-22T08:14:42;8.63;;;2.60;;
24389;SDS011;12510;56.468;-3.004;2023-06-22T08:17:10;3.85;;;1.77;;
24389;SDS011;12510;56.468;-3.004;2023-06-22T08:19:37;3.25;;;1.83;;
24389;SDS011;12510;56.468;-3.004;2023-06-22T08:22:03;3.00;;;1.52;;
24389;SDS011;12510;56.468;-3.004;2023-06-22T08:24:30;1.35;;;1.23;;
24389;SDS011;12510;56.468;-3.004;2023-06-22T08:26:57;2.80;;;2.00;;
24389;SDS011;12510;56.468;-3.004;2023-06-22T08:29:23;4.60;;;2.10;;
24389;SDS011;12510;56.468;-3.004;2023-06-22T08:31:50;3.20;;;1.50;;
24389;SDS011;12510;56.468;-3.004;2023-06-22T08:34:16;4.30;;;1.65;;
24389;SDS011;12510;56.468;-3.004;2023-06-22T08:36:47;2.88;;;1.45;;
24389;SDS011;12510;56.468;-3.004;2023-06-22T08:39:18;10.18;;;2.65;;
24389;SDS011;12510;56.468;-3.004;2023-06-22T08:41:46;3.60;;;1.87;;
24389;SDS011;12510;56.468;-3.004;2023-06-22T08:44:13;5.80;;;3.63;;
24389;SDS011;12510;56.468;-3.004;2023-06-22T08:46:41;2.38;;;1.58;;
24389;SDS011;12510;56.468;-3.004;2023-06-22T08:49:07;4.32;;;2.08;;
24389;SDS011;12510;56.468;-3.004;2023-06-22T08:51:35;4.30;;;1.50;;
24389;SDS011;12510;56.468;-3.004;2023-06-22T08:54:02;2.53;;;1.30;;
24389;SDS011;12510;56.468;-3.004;2023-06-22T08:56:28;3.22;;;1.63;;
24389;SDS011;12510;56.468;-3.004;2023-06-22T08:58:55;3.45;;;1.50;;
24389;SDS011;12510;56.468;-3.004;2023-06-22T09:01:21;2.45;;;1.52;;
24389;SDS011;12510;56.468;-3.004;2023-06-22T09:03:48;1.50;;;1.35;;
24389;SDS011;12510;56.468;-3.004;2023-06-22T09:06:21;2.95;;;1.65;;
24389;SDS011;12510;56.468;-3.004;2023-06-22T09:08:48;1.80;;;1.70;;
24389;SDS011;12510;56.468;-3.004;2023-06-22T09:11:15;2.78;;;1.60;;
24389;SDS011;12510;56.468;-3.004;2023-06-22T09:13:42;2.35;;;1.63;;
24389;SDS011;12510;56.468;-3.004;2023-06-22T09:16:08;1.15;;;1.13;;
24389;SDS011;12510;56.468;-3.004;2023-06-22T09:18:35;7.85;;;2.20;;
24389;SDS011;12510;56.468;-3.004;2023-06-22T09:21:02;3.22;;;1.63;;
24389;SDS011;12510;56.468;-3.004;2023-06-22T09:23:28;3.80;;;1.60;;
24389;SDS011;12510;56.468;-3.004;2023-06-22T09:25:55;3.08;;;1.42;;
24389;SDS011;12510;56.468;-3.004;2023-06-22T09:28:21;2.97;;;1.15;;
24389;SDS011;12510;56.468;-3.004;2023-06-22T09:30:48;5.00;;;1.58;;
24389;SDS011;12510;56.468;-3.004;2023-06-22T09:33:14;2.50;;;1.77;;
24389;SDS011;12510;56.468;-3.004;2023-06-22T09:35:41;2.97;;;1.45;;
24389;SDS011;12510;56.468;-3.004;2023-06-22T09:38:07;2.22;;;1.58;;
24389;SDS011;12510;56.468;-3.004;2023-06-22T09:40:33;2.03;;;1.50;;
24389;SDS011;12510;56.468;-3.004;2023-06-22T09:43:05;4.72;;;1.75;;
24389;SDS011;12510;56.468;-3.004;2023-06-22T09:45:32;6.82;;;2.28;;
24389;SDS011;12510;56.468;-3.004;2023-06-22T09:47:58;4.10;;;1.30;;
24389;SDS011;12510;56.468;-3.004;2023-06-22T09:50:25;3.10;;;1.58;;
24389;SDS011;12510;56.468;-3.004;2023-06-22T09:52:51;2.28;;;1.70;;
24389;SDS011;12510;56.468;-3.004;2023-06-22T09:55:21;3.30;;;1.33;;
24389;SDS011;12510;56.468;-3.004;2023-06-22T09:57:48;2.40;;;1.55;;
24389;SDS011;12510;56.468;-3.004;2023-06-22T10:00:16;2.53;;;1.70;;
24389;SDS011;12510;56.468;-3.004;2023-06-22T10:02:43;4.47;;;1.70;;
24389;SDS011;12510;56.468;-3.004;2023-06-22T10:05:09;2.40;;;1.60;;
24389;SDS011;12510;56.468;-3.004;2023-06-22T10:07:36;2.15;;;1.65;;
24389;SDS011;12510;56.468;-3.004;2023-06-22T10:10:08;2.80;;;1.40;;
24389;SDS011;12510;56.468;-3.004;2023-06-22T10:12:35;8.50;;;3.58;;
24389;SDS011;12510;56.468;-3.004;2023-06-22T10:15:02;3.38;;;1.92;;
24389;SDS011;12510;56.468;-3.004;2023-06-22T10:17:30;3.45;;;1.55;;
24389;SDS011;12510;56.468;-3.004;2023-06-22T10:19:56;2.45;;;1.42;;
24389;SDS011;12510;56.468;-3.004;2023-06-22T10:22:23;3.40;;;1.48;;
24389;SDS011;12510;56.468;-3.004;2023-06-22T10:24:49;2.42;;;1.20;;
24389;SDS011;12510;56.468;-3.004;2023-06-22T10:27:16;1.95;;;1.85;;
24389;SDS011;12510;56.468;-3.004;2023-06-22T10:29:42;1.90;;;1.40;;
24389;SDS011;12510;56.468;-3.004;2023-06-22T10:32:09;4.13;;;1.70;;
24389;SDS011;12510;56.468;-3.004;2023-06-22T10:34:35;7.22;;;2.10;;
24389;SDS011;12510;56.468;-3.004;2023-06-22T10:37:02;2.80;;;1.40;;
24389;SDS011;12510;56.468;-3.004;2023-06-22T10:39:28;8.10;;;2.10;;
24389;SDS011;12510;56.468;-3.004;2023-06-22T10:41:54;1.45;;;1.05;;
24389;SDS011;12510;56.468;-3.004;2023-06-22T10:44:22;2.47;;;1.77;;
24389;SDS011;12510;56.468;-3.004;2023-06-22T10:46:48;1.83;;;1.10;;
24389;SDS011;12510;56.468;-3.004;2023-06-22T10:49:14;3.38;;;1.20;;
24389;SDS011;12510;56.468;-3.004;2023-06-22T10:51:41;4.38;;;1.77;;
24389;SDS011;12510;56.468;-3.004;2023-06-22T10:54:07;1.50;;;1.25;;
24389;SDS011;12510;56.468;-3.004;2023-06-22T10:56:34;3.15;;;1.67;;
24389;SDS011;12510;56.468;-3.004;2023-06-22T10:59:00;1.70;;;1.20;;
24389;SDS011;12510;56.468;-3.004;2023-06-22T11:01:27;1.38;;;1.27;;
24389;SDS011;12510;56.468;-3.004;2023-06-22T11:03:54;3.03;;;1.42;;
24389;SDS011;12510;56.468;-3.004;2023-06-22T11:06:20;31.73;;;4.40;;
24389;SDS011;12510;56.468;-3.004;2023-06-22T11:08:47;1.63;;;1.52;;
24389;SDS011;12510;56.468;-3.004;2023-06-22T11:11:13;2.40;;;1.23;;
24389;SDS011;12510;56.468;-3.004;2023-06-22T11:13:40;2.92;;;1.55;;
24389;SDS011;12510;56.468;-3.004;2023-06-22T11:16:06;3.22;;;1.30;;
24389;SDS011;12510;56.468;-3.004;2023-06-22T11:18:32;2.13;;;1.60;;
24389;SDS011;12510;56.468;-3.004;2023-06-22T11:20:59;2.00;;;1.67;;
24389;SDS011;12510;56.468;-3.004;2023-06-22T11:23:26;5.00;;;1.75;;
24389;SDS011;12510;56.468;-3.004;2023-06-22T11:25:54;2.55;;;1.48;;
24389;SDS011;12510;56.468;-3.004;2023-06-22T11:28:20;2.47;;;1.40;;
24389;SDS011;12510;56.468;-3.004;2023-06-22T11:30:47;14.13;;;3.17;;
24389;SDS011;12510;56.468;-3.004;2023-06-22T11:33:13;4.25;;;2.55;;
24389;SDS011;12510;56.468;-3.004;2023-06-22T11:35:40;5.72;;;1.40;;
24389;SDS011;12510;56.468;-3.004;2023-06-22T11:38:06;3.60;;;1.50;;
24389;SDS011;12510;56.468;-3.004;2023-06-22T11:40:33;2.58;;;1.50;;
24389;SDS011;12510;56.468;-3.004;2023-06-22T11:43:00;4.40;;;1.90;;
24389;SDS011;12510;56.468;-3.004;2023-06-22T11:45:26;3.33;;;1.50;;
24389;SDS011;12510;56.468;-3.004;2023-06-22T11:47:53;2.35;;;1.50;;
24389;SDS011;12510;56.468;-3.004;2023-06-22T11:50:19;4.45;;;2.28;;
24389;SDS011;12510;56.468;-3.004;2023-06-22T11:52:46;2.95;;;1.90;;
24389;SDS011;12510;56.468;-3.004;2023-06-22T11:55:12;1.70;;;1.50;;
24389;SDS011;12510;56.468;-3.004;2023-06-22T11:57:53;2.33;;;1.75;;
24389;SDS011;12510;56.468;-3.004;2023-06-22T12:00:21;2.08;;;1.85;;
24389;SDS011;12510;56.468;-3.004;2023-06-22T12:02:50;1.98;;;1.70;;
24389;SDS011;12510;56.468;-3.004;2023-06-22T12:05:19;4.30;;;1.38;;
24389;SDS011;12510;56.468;-3.004;2023-06-22T12:07:47;2.20;;;1.55;;
24389;SDS011;12510;56.468;-3.004;2023-06-22T12:10:14;1.60;;;1.20;;
24389;SDS011;12510;56.468;-3.004;2023-06-22T12:12:41;6.00;;;1.95;;
24389;SDS011;12510;56.468;-3.004;2023-06-22T12:15:11;3.58;;;2.40;;
24389;SDS011;12510;56.468;-3.004;2023-06-22T12:17:38;4.30;;;1.67;;
24389;SDS011;12510;56.468;-3.004;2023-06-22T12:20:05;4.65;;;1.80;;
24389;SDS011;12510;56.468;-3.004;2023-06-22T12:22:32;3.45;;;2.08;;
24389;SDS011;12510;56.468;-3.004;2023-06-22T12:24:59;2.47;;;1.50;;
24389;SDS011;12510;56.468;-3.004;2023-06-22T12:27:26;2.55;;;1.67;;
24389;SDS011;12510;56.468;-3.004;2023-06-22T12:29:53;1.45;;;1.23;;
24389;SDS011;12510;56.468;-3.004;2023-06-22T12:32:19;1.52;;;1.40;;
24389;SDS011;12510;56.468;-3.004;2023-06-22T12:34:46;2.28;;;1.77;;
24389;SDS011;12510;56.468;-3.004;2023-06-22T12:37:12;2.75;;;1.65;;
24389;SDS011;12510;56.468;-3.004;2023-06-22T12:39:42;3.92;;;1.80;;
24389;SDS011;12510;56.468;-3.004;2023-06-22T12:42:08;3.13;;;1.60;;
24389;SDS011;12510;56.468;-3.004;2023-06-22T12:44:35;2.40;;;1.83;;
24389;SDS011;12510;56.468;-3.004;2023-06-22T12:47:03;7.47;;;2.05;;
24389;SDS011;12510;56.468;-3.004;2023-06-22T12:49:30;7.45;;;3.92;;
24389;SDS011;12510;56.468;-3.004;2023-06-22T12:51:57;1.98;;;1.35;;
24389;SDS011;12510;56.468;-3.004;2023-06-22T12:54:23;3.83;;;1.60;;
24389;SDS011;12510;56.468;-3.004;2023-06-22T12:56:50;2.30;;;1.80;;
24389;SDS011;12510;56.468;-3.004;2023-06-22T12:59:16;4.60;;;1.70;;
24389;SDS011;12510;56.468;-3.004;2023-06-22T13:01:43;3.03;;;1.80;;
24389;SDS011;12510;56.468;-3.004;2023-06-22T13:04:11;1.52;;;1.40;;
24389;SDS011;12510;56.468;-3.004;2023-06-22T13:06:41;1.73;;;1.55;;
24389;SDS011;12510;56.468;-3.004;2023-06-22T13:09:09;2.10;;;1.75;;
24389;SDS011;12510;56.468;-3.004;2023-06-22T13:11:36;2.15;;;1.55;;
24389;SDS011;12510;56.468;-3.004;2023-06-22T13:14:02;2.10;;;1.90;;
24389;SDS011;12510;56.468;-3.004;2023-06-22T13:16:29;2.05;;;1.73;;
24389;SDS011;12510;56.468;-3.004;2023-06-22T13:18:55;2.65;;;2.15;;
24389;SDS011;12510;56.468;-3.004;2023-06-22T13:21:22;4.25;;;2.13;;
24389;SDS011;12510;56.468;-3.004;2023-06-22T13:23:48;3.70;;;1.88;;
24389;SDS011;12510;56.468;-3.004;2023-06-22T13:26:14;4.18;;;1.70;;
24389;SDS011;12510;56.468;-3.004;2023-06-22T13:28:41;2.33;;;1.80;;
24389;SDS011;12510;56.468;-3.004;2023-06-22T13:31:07;5.63;;;2.67;;
24389;SDS011;12510;56.468;-3.004;2023-06-22T13:33:34;2.83;;;2.50;;
24389;SDS011;12510;56.468;-3.004;2023-06-22T13:36:00;3.13;;;2.45;;
24389;SDS011;12510;56.468;-3.004;2023-06-22T13:38:29;2.63;;;2.15;;
24389;SDS011;12510;56.468;-3.004;2023-06-22T13:40:57;2.85;;;1.63;;
24389;SDS011;12510;56.468;-3.004;2023-06-22T13:43:26;5.63;;;2.05;;
24389;SDS011;12510;56.468;-3.004;2023-06-22T13:45:53;3.05;;;1.80;;
24389;SDS011;12510;56.468;-3.004;2023-06-22T13:48:19;1.85;;;1.60;;
24389;SDS011;12510;56.468;-3.004;2023-06-22T13:50:46;2.85;;;1.50;;
24389;SDS011;12510;56.468;-3.004;2023-06-22T13:53:12;4.13;;;2.10;;
24389;SDS011;12510;56.468;-3.004;2023-06-22T13:55:39;2.97;;;1.67;;
24389;SDS011;12510;56.468;-3.004;2023-06-22T13:58:06;2.20;;;1.60;;
24389;SDS011;12510;56.468;-3.004;2023-06-22T14:00:32;3.58;;;1.52;;
24389;SDS011;12510;56.468;-3.004;2023-06-22T14:02:59;3.80;;;1.83;;
24389;SDS011;12510;56.468;-3.004;2023-06-22T14:05:25;2.60;;;1.25;;
24389;SDS011;12510;56.468;-3.004;2023-06-22T14:07:52;3.58;;;1.90;;
24389;SDS011;12510;56.468;-3.004;2023-06-22T14:10:18;4.65;;;1.45;;
24389;SDS011;12510;56.468;-3.004;2023-06-22T14:12:45;2.17;;;1.70;;
24389;SDS011;12510;56.468;-3.004;2023-06-22T14:15:11;3.60;;;1.63;;
24389;SDS011;12510;56.468;-3.004;2023-06-22T14:17:38;1.48;;;1.20;;
24389;SDS011;12510;56.468;-3.004;2023-06-22T14:20:04;6.90;;;3.17;;
24389;SDS011;12510;56.468;-3.004;2023-06-22T14:22:33;2.67;;;1.33;;
24389;SDS011;12510;56.468;-3.004;2023-06-22T14:25:01;2.75;;;1.55;;
24389;SDS011;12510;56.468;-3.004;2023-06-22T14:27:27;7.82;;;2.35;;
24389;SDS011;12510;56.468;-3.004;2023-06-22T14:29:54;1.95;;;1.58;;
24389;SDS011;12510;56.468;-3.004;2023-06-22T14:32:20;3.25;;;1.63;;
24389;SDS011;12510;56.468;-3.004;2023-06-22T14:34:47;2.88;;;1.65;;
24389;SDS011;12510;56.468;-3.004;2023-06-22T14:37:13;5.13;;;2.92;;
24389;SDS011;12510;56.468;-3.004;2023-06-22T14:39:40;2.15;;;1.70;;
24389;SDS011;12510;56.468;-3.004;2023-06-22T14:42:06;1.58;;;1.20;;
24389;SDS011;12510;56.468;-3.004;2023-06-22T14:44:33;4.18;;;1.80;;